createdAt,value
2022-11-12T00:02:07.604Z,11.50
2022-11-12T00:04:53.935Z,11.17
2022-11-12T00:07:40.585Z,10.90
2022-11-12T00:10:27.319Z,10.66
2022-11-12T00:13:14.275Z,10.45
2022-11-12T00:16:00.690Z,10.26
2022-11-12T00:18:48.219Z,10.09
2022-11-12T00:21:34.643Z,9.92
2022-11-12T00:24:21.179Z,9.78
2022-11-12T00:27:07.437Z,9.64
2022-11-12T00:29:53.678Z,9.52
2022-11-12T00:32:40.330Z,9.40
2022-11-12T00:35:27.063Z,9.30
2022-11-12T00:38:13.285Z,9.65
2022-11-12T00:41:00.490Z,11.42
2022-11-12T00:43:47.001Z,12.86
2022-11-12T00:46:33.491Z,12.96
2022-11-12T00:49:20.045Z,12.13
2022-11-12T00:52:06.361Z,11.45
2022-11-12T00:54:52.789Z,10.99
2022-11-12T00:57:39.173Z,10.65
2022-11-12T01:00:26.036Z,10.36
2022-11-12T01:03:12.182Z,10.12
2022-11-12T01:06:20.333Z,9.90
2022-11-12T01:09:07.465Z,9.69
2022-11-12T01:11:53.833Z,9.52
2022-11-12T01:14:40.149Z,9.38
2022-11-12T01:17:26.841Z,9.24
2022-11-12T01:20:13.021Z,9.12
2022-11-12T01:22:59.515Z,9.01
2022-11-12T01:25:45.970Z,8.90
2022-11-12T01:28:32.750Z,8.80
2022-11-12T01:31:21.416Z,9.11
2022-11-12T01:34:09.360Z,10.82
2022-11-12T01:36:56.043Z,12.37
2022-11-12T01:39:42.662Z,12.79
2022-11-12T01:42:32.905Z,11.94
2022-11-12T01:45:20.121Z,11.19
2022-11-12T01:48:12.406Z,10.69
2022-11-12T01:50:59.356Z,10.33
2022-11-12T01:53:47.874Z,10.03
2022-11-12T01:56:34.373Z,9.78
2022-11-12T01:59:27.088Z,9.55
2022-11-12T02:02:13.633Z,9.34
2022-11-12T02:05:00.768Z,9.18
2022-11-12T02:07:48.265Z,9.02
2022-11-12T02:10:35.197Z,8.88
2022-11-12T02:13:40.638Z,8.76
2022-11-12T02:16:38.253Z,8.63
2022-11-12T02:19:24.477Z,8.51
2022-11-12T02:22:10.655Z,8.84
2022-11-12T02:24:57.052Z,10.67
2022-11-12T02:27:44.470Z,11.87
2022-11-12T02:30:44.124Z,11.30
2022-11-12T02:33:30.571Z,10.52
2022-11-12T02:36:17.156Z,10.03
2022-11-12T02:39:03.791Z,9.71
2022-11-12T02:41:50.373Z,9.47
2022-11-12T02:44:36.656Z,9.26
2022-11-12T02:47:23.086Z,9.08
2022-11-12T02:50:10.076Z,8.91
2022-11-12T02:52:56.585Z,8.77
2022-11-12T02:55:43.604Z,8.64
2022-11-12T02:58:30.176Z,8.52
2022-11-12T03:01:16.835Z,8.39
2022-11-12T03:04:03.330Z,8.29
2022-11-12T03:06:49.847Z,8.19
2022-11-12T03:09:36.379Z,8.50
2022-11-12T03:12:22.539Z,10.23
2022-11-12T03:15:09.175Z,11.68
2022-11-12T03:17:55.399Z,12.21
2022-11-12T03:20:41.802Z,11.44
2022-11-12T03:23:28.389Z,10.72
2022-11-12T03:26:14.562Z,10.23
2022-11-12T03:29:01.022Z,9.88
2022-11-12T03:31:47.611Z,9.59
2022-11-12T03:34:34.102Z,9.35
2022-11-12T03:37:20.775Z,9.14
2022-11-12T03:40:08.107Z,8.95
2022-11-12T03:42:54.732Z,8.76
2022-11-12T03:45:41.063Z,8.60
2022-11-12T03:48:27.990Z,8.45
2022-11-12T03:51:16.337Z,8.32
2022-11-12T03:54:02.450Z,8.20
2022-11-12T03:56:48.961Z,8.09
2022-11-12T03:59:35.246Z,7.99
2022-11-12T04:02:21.442Z,8.24
2022-11-12T04:05:26.984Z,9.94
2022-11-12T04:08:34.828Z,11.47
2022-11-12T04:11:21.291Z,11.30
2022-11-12T04:14:07.768Z,10.53
2022-11-12T04:17:12.833Z,9.98
2022-11-12T04:20:17.912Z,9.55
2022-11-12T04:23:04.472Z,9.24
2022-11-12T04:26:09.072Z,9.00
2022-11-12T04:29:14.251Z,8.77
2022-11-12T04:32:00.804Z,8.57
2022-11-12T04:34:47.850Z,8.40
2022-11-12T04:37:44.800Z,8.25
2022-11-12T04:40:50.600Z,8.10
2022-11-12T04:43:55.658Z,7.96
2022-11-12T04:46:42.123Z,7.83
2022-11-12T04:49:28.701Z,7.73
2022-11-12T04:52:15.319Z,7.64
2022-11-12T04:55:01.588Z,8.02
2022-11-12T04:57:47.912Z,9.82
2022-11-12T05:00:34.515Z,10.90
2022-11-12T05:03:21.178Z,10.37
2022-11-12T05:06:26.770Z,9.69
2022-11-12T05:09:13.754Z,9.17
2022-11-12T05:12:00.555Z,8.83
2022-11-12T05:14:47.221Z,8.55
2022-11-12T05:17:33.841Z,8.33
2022-11-12T05:20:20.653Z,8.15
2022-11-12T05:23:07.876Z,7.99
2022-11-12T05:25:54.402Z,7.85
2022-11-12T05:28:41.317Z,7.72
2022-11-12T05:31:28.000Z,7.61
2022-11-12T05:34:18.625Z,7.51
2022-11-12T05:37:09.403Z,7.41
2022-11-12T05:39:55.924Z,7.73
2022-11-12T05:42:42.842Z,9.49
2022-11-12T05:45:29.253Z,10.90
2022-11-12T05:48:20.174Z,11.15
2022-11-12T05:51:13.610Z,10.32
2022-11-12T05:54:01.162Z,9.66
2022-11-12T05:56:47.962Z,9.24
2022-11-12T05:59:34.632Z,8.92
2022-11-12T06:02:21.309Z,8.68
2022-11-12T06:05:08.500Z,8.47
2022-11-12T06:07:55.248Z,8.28
2022-11-12T06:10:42.012Z,8.12
2022-11-12T06:13:28.846Z,7.98
2022-11-12T06:16:15.660Z,7.85
2022-11-12T06:19:02.503Z,7.75
2022-11-12T06:21:49.869Z,7.65
2022-11-12T06:24:36.979Z,7.57
2022-11-12T06:27:24.170Z,7.93
2022-11-12T06:30:10.866Z,9.89
2022-11-12T06:32:57.530Z,11.56
2022-11-12T06:35:44.011Z,11.64
2022-11-12T06:38:34.636Z,10.81
2022-11-12T06:41:21.509Z,10.17
2022-11-12T06:44:08.046Z,9.76
2022-11-12T06:46:54.796Z,9.47
2022-11-12T06:49:41.461Z,9.24
2022-11-12T06:52:27.969Z,9.06
2022-11-12T06:55:14.724Z,8.88
2022-11-12T06:58:01.499Z,8.74
2022-11-12T07:00:48.082Z,8.60
2022-11-12T07:03:35.256Z,8.48
2022-11-12T07:06:21.463Z,8.38
2022-11-12T07:09:08.275Z,8.30
2022-11-12T07:11:54.924Z,8.25
2022-11-12T07:14:41.401Z,8.21
2022-11-12T07:17:28.316Z,8.64
2022-11-12T07:20:15.242Z,10.53
2022-11-12T07:23:02.001Z,11.86
2022-11-12T07:25:56.703Z,11.40
2022-11-12T07:28:44.133Z,10.75
2022-11-12T07:31:30.741Z,10.36
2022-11-12T07:34:17.217Z,10.14
2022-11-12T07:37:03.860Z,9.99
2022-11-12T07:39:50.676Z,9.87
2022-11-12T07:42:37.329Z,9.76
2022-11-12T07:45:23.943Z,9.68
2022-11-12T07:48:10.433Z,9.64
2022-11-12T07:51:21.411Z,9.63
2022-11-12T07:54:08.165Z,9.64
2022-11-12T07:56:55.095Z,9.68
2022-11-12T07:59:45.858Z,10.18
2022-11-12T08:02:32.961Z,12.35
2022-11-12T08:05:21.509Z,13.77
2022-11-12T08:08:08.112Z,13.36
2022-11-12T08:10:56.657Z,12.80
2022-11-12T08:13:43.149Z,12.47
2022-11-12T08:16:30.580Z,12.32
2022-11-12T08:19:18.008Z,12.28
2022-11-12T08:22:05.454Z,12.28
2022-11-12T08:24:55.607Z,12.31
2022-11-12T08:27:45.196Z,12.34
2022-11-12T08:30:32.694Z,12.42
2022-11-12T08:33:20.832Z,12.52
2022-11-12T08:36:13.575Z,12.65
2022-11-12T08:39:00.112Z,12.79
2022-11-12T08:41:47.244Z,12.90
2022-11-12T08:44:34.173Z,12.98
2022-11-12T08:47:21.480Z,13.04
2022-11-12T08:50:08.712Z,13.14
2022-11-12T08:53:03.748Z,13.25
2022-11-12T08:55:54.216Z,13.40
2022-11-12T08:58:40.852Z,13.55
2022-11-12T09:01:27.792Z,13.73
2022-11-12T09:04:14.273Z,13.83
2022-11-12T09:07:01.199Z,13.89
2022-11-12T09:09:47.854Z,13.89
2022-11-12T09:12:34.756Z,13.98
2022-11-12T09:15:36.889Z,14.14
2022-11-12T09:18:24.828Z,14.33
2022-11-12T09:21:12.438Z,14.42
2022-11-12T09:23:58.741Z,14.55
2022-11-12T09:26:45.428Z,14.67
2022-11-12T09:29:32.006Z,14.78
2022-11-12T09:32:18.693Z,14.98
2022-11-12T09:35:05.818Z,15.12
2022-11-12T09:37:52.264Z,15.22
2022-11-12T09:40:53.642Z,15.31
2022-11-12T09:43:51.547Z,15.45
2022-11-12T09:47:04.069Z,15.63
2022-11-12T09:49:58.108Z,15.83
2022-11-12T09:52:46.029Z,15.99
2022-11-12T09:55:36.706Z,16.19
2022-11-12T09:58:22.921Z,16.43
2022-11-12T10:01:24.408Z,16.64
2022-11-12T10:04:24.172Z,16.81
2022-11-12T10:07:41.491Z,17.00
2022-11-12T10:10:54.581Z,17.20
2022-11-12T10:14:02.088Z,17.32
2022-11-12T10:17:23.926Z,17.47
2022-11-12T10:20:26.379Z,17.65
2022-11-12T10:23:23.010Z,17.79
2022-11-12T10:26:15.142Z,17.89
2022-11-12T10:29:11.627Z,17.96
2022-11-12T10:32:01.625Z,18.10
2022-11-12T10:34:47.972Z,18.34
2022-11-12T10:37:39.007Z,18.58
2022-11-12T10:40:29.061Z,18.77
2022-11-12T10:43:15.319Z,18.92
2022-11-12T10:46:20.072Z,19.02
2022-11-12T10:49:08.327Z,19.08
2022-11-12T10:51:57.783Z,19.16
2022-11-12T10:54:44.569Z,19.21
2022-11-12T10:57:30.820Z,19.23
2022-11-12T11:00:20.437Z,19.29
2022-11-12T11:03:16.826Z,19.37
2022-11-12T11:06:04.100Z,19.44
2022-11-12T11:08:52.737Z,19.48
2022-11-12T11:11:49.260Z,19.58
2022-11-12T11:14:36.013Z,19.67
2022-11-12T11:17:22.371Z,19.72
2022-11-12T11:20:36.048Z,19.83
2022-11-12T11:23:32.980Z,19.95
2022-11-12T11:26:33.166Z,20.02
2022-11-12T11:29:46.503Z,20.01
2022-11-12T11:32:51.117Z,20.01
2022-11-12T11:36:30.709Z,20.01
2022-11-12T11:39:25.955Z,20.01
2022-11-12T11:42:47.772Z,20.04
2022-11-12T11:46:11.929Z,20.08
2022-11-12T11:49:19.784Z,20.11
2022-11-12T11:55:54.232Z,20.15
2022-11-12T11:58:59.449Z,20.16
2022-11-12T12:01:58.085Z,20.12
2022-11-12T12:04:50.575Z,20.17
2022-11-12T12:07:56.121Z,20.16
2022-11-12T12:11:08.564Z,20.18
2022-11-12T12:14:03.432Z,20.27
2022-11-12T12:17:02.841Z,20.32
2022-11-12T12:20:01.417Z,20.42
2022-11-12T12:23:00.877Z,20.55
2022-11-12T12:25:49.663Z,20.65
2022-11-12T12:28:44.717Z,20.73
2022-11-12T12:31:37.060Z,20.81
2022-11-12T12:34:31.878Z,20.94
2022-11-12T12:37:26.189Z,21.05
2022-11-12T12:40:46.090Z,21.11
2022-11-12T12:43:35.965Z,21.20
2022-11-12T12:46:28.279Z,21.30
2022-11-12T12:49:22.977Z,21.34
2022-11-12T12:52:17.981Z,21.33
2022-11-12T12:55:05.099Z,21.27
2022-11-12T12:57:58.895Z,21.25
2022-11-12T13:00:50.986Z,21.33
2022-11-12T13:03:44.012Z,21.33
2022-11-12T13:06:52.117Z,21.33
2022-11-12T13:09:38.717Z,21.49
2022-11-12T13:13:14.627Z,21.57
2022-11-12T13:16:01.929Z,21.55
2022-11-12T13:18:51.027Z,21.56
2022-11-12T13:21:37.555Z,21.62
2022-11-12T13:25:01.970Z,21.70
2022-11-12T13:27:48.733Z,21.70
2022-11-12T13:30:35.258Z,21.75
2022-11-12T13:33:27.688Z,21.67
2022-11-12T13:36:26.119Z,21.44
2022-11-12T13:39:15.469Z,21.36
2022-11-12T13:42:33.488Z,21.34
2022-11-12T13:45:22.551Z,21.38
2022-11-12T13:48:13.951Z,21.45
2022-11-12T13:51:04.845Z,21.43
2022-11-12T13:53:51.414Z,21.36
2022-11-12T13:56:37.793Z,21.22
2022-11-12T13:59:25.952Z,21.08
2022-11-12T14:02:25.723Z,20.90
2022-11-12T14:05:25.475Z,20.76
2022-11-12T14:08:24.780Z,20.69
2022-11-12T14:11:43.642Z,20.74
2022-11-12T14:14:54.215Z,20.92
2022-11-12T14:17:51.736Z,21.15
2022-11-12T14:20:42.117Z,21.34
2022-11-12T14:23:32.076Z,21.47
2022-11-12T14:26:40.869Z,21.54
2022-11-12T14:29:32.916Z,21.60
2022-11-12T14:32:21.206Z,21.56
2022-11-12T14:35:29.069Z,21.45
2022-11-12T14:38:19.195Z,21.31
2022-11-12T14:41:11.070Z,21.15
2022-11-12T14:44:12.135Z,20.88
2022-11-12T14:47:00.551Z,20.26
2022-11-12T14:49:48.777Z,19.51
2022-11-12T14:52:43.501Z,18.82
2022-11-12T14:55:36.540Z,18.16
2022-11-12T14:58:23.885Z,17.63
2022-11-12T15:04:43.735Z,16.58
2022-11-12T15:07:32.863Z,16.20
2022-11-12T15:10:28.572Z,15.90
2022-11-12T15:13:21.528Z,15.56
2022-11-12T15:16:16.388Z,15.24
2022-11-12T15:19:04.328Z,14.98
2022-11-12T15:21:56.666Z,14.74
2022-11-12T15:24:45.585Z,14.52
2022-11-12T15:27:39.190Z,14.31
2022-11-12T15:30:28.793Z,14.11
2022-11-12T15:33:26.131Z,13.92
2022-11-12T15:36:18.743Z,13.72
2022-11-12T15:39:12.425Z,13.53
2022-11-12T15:42:13.298Z,13.35
2022-11-12T15:45:04.718Z,13.17
2022-11-12T15:47:51.858Z,13.01
2022-11-12T15:50:42.326Z,12.86
2022-11-12T15:53:30.622Z,12.72
2022-11-12T15:56:21.720Z,12.58
2022-11-12T15:59:12.504Z,12.44
2022-11-12T16:01:59.515Z,12.31
2022-11-12T16:04:46.333Z,12.19
2022-11-12T16:07:34.060Z,12.07
2022-11-12T16:10:20.442Z,11.96
2022-11-12T16:13:11.315Z,11.86
2022-11-12T16:15:58.104Z,11.74
2022-11-12T16:18:44.861Z,11.62
2022-11-12T16:21:31.273Z,11.52
2022-11-12T16:24:17.957Z,11.43
2022-11-12T16:27:07.501Z,11.33
2022-11-12T16:29:54.484Z,11.24
2022-11-12T16:32:41.201Z,11.16
2022-11-12T16:35:28.809Z,11.09
2022-11-12T16:38:16.887Z,11.01
2022-11-12T16:41:03.462Z,11.40
2022-11-12T16:43:51.438Z,13.12
2022-11-12T16:46:41.585Z,14.11
2022-11-12T16:49:27.963Z,13.56
2022-11-12T16:52:14.380Z,12.95
2022-11-12T16:55:04.605Z,12.49
2022-11-12T16:57:51.480Z,12.17
2022-11-12T17:00:38.993Z,11.92
2022-11-12T17:03:25.625Z,11.70
2022-11-12T17:06:12.287Z,11.50
2022-11-12T17:08:58.861Z,11.31
2022-11-12T17:11:45.342Z,11.14
2022-11-12T17:14:31.789Z,10.99
2022-11-12T17:17:18.717Z,10.85
2022-11-12T17:20:05.825Z,10.72
2022-11-12T17:22:52.546Z,10.60
2022-11-12T17:25:39.205Z,10.49
2022-11-12T17:28:25.661Z,10.40
2022-11-12T17:31:23.058Z,10.31
2022-11-12T17:34:09.818Z,10.22
2022-11-12T17:36:56.257Z,10.57
2022-11-12T17:39:44.411Z,12.38
2022-11-12T17:42:30.955Z,13.47
2022-11-12T17:45:17.374Z,12.89
2022-11-12T17:48:04.080Z,12.22
2022-11-12T17:50:52.366Z,11.77
2022-11-12T17:53:39.749Z,11.43
2022-11-12T17:56:26.440Z,11.17
2022-11-12T17:59:13.598Z,10.95
2022-11-12T18:02:00.930Z,10.75
2022-11-12T18:04:48.744Z,10.57
2022-11-12T18:07:35.365Z,10.41
2022-11-12T18:10:22.320Z,10.26
2022-11-12T18:13:08.937Z,10.13
2022-11-12T18:15:55.486Z,9.99
2022-11-12T18:18:42.190Z,9.87
2022-11-12T18:21:28.876Z,9.78
2022-11-12T18:24:16.135Z,9.69
2022-11-12T18:27:02.816Z,10.11
2022-11-12T18:29:49.234Z,11.92
2022-11-12T18:32:36.003Z,13.30
2022-11-12T18:35:25.898Z,13.47
2022-11-12T18:38:16.305Z,12.67
2022-11-12T18:41:08.449Z,12.04
2022-11-12T18:43:55.544Z,11.57
2022-11-12T18:46:42.032Z,11.25
2022-11-12T18:49:28.773Z,11.00
2022-11-12T18:52:15.372Z,10.79
2022-11-12T18:55:03.098Z,10.62
2022-11-12T18:57:49.701Z,10.47
2022-11-12T19:00:36.882Z,10.37
2022-11-12T19:03:23.470Z,10.69
2022-11-12T19:06:12.456Z,12.39
2022-11-12T19:09:00.593Z,13.83
2022-11-12T19:11:47.715Z,14.27
2022-11-12T19:14:34.711Z,13.46
2022-11-12T19:17:21.127Z,12.79
2022-11-12T19:20:08.636Z,12.35
2022-11-12T19:22:55.680Z,12.03
2022-11-12T19:25:42.027Z,11.79
2022-11-12T19:28:29.468Z,11.58
2022-11-12T19:31:21.875Z,11.39
2022-11-12T19:34:08.189Z,11.78
2022-11-12T19:37:11.914Z,13.50
2022-11-12T19:40:01.452Z,14.80
2022-11-12T19:42:48.150Z,14.49
2022-11-12T19:45:34.782Z,13.69
2022-11-12T19:48:21.139Z,13.11
2022-11-12T19:51:09.477Z,12.70
2022-11-12T19:53:55.884Z,12.39
2022-11-12T19:56:42.459Z,12.16
2022-11-12T19:59:29.021Z,11.96
2022-11-12T20:02:15.601Z,12.21
2022-11-12T20:05:02.369Z,13.85
2022-11-12T20:07:49.556Z,14.77
2022-11-12T20:10:36.053Z,14.19
2022-11-12T20:13:22.532Z,13.50
2022-11-12T20:16:13.098Z,13.02
2022-11-12T20:19:01.605Z,12.67
2022-11-12T20:21:48.127Z,12.43
2022-11-12T20:24:34.778Z,12.21
2022-11-12T20:27:21.146Z,12.02
2022-11-12T20:30:08.545Z,12.31
2022-11-12T20:32:55.249Z,13.82
2022-11-12T20:35:42.376Z,14.99
2022-11-12T20:38:29.220Z,15.31
2022-11-12T20:41:18.699Z,14.54
2022-11-12T20:44:05.344Z,13.85
2022-11-12T20:46:51.643Z,13.38
2022-11-12T20:49:38.235Z,12.96
2022-11-12T20:52:25.104Z,12.53
2022-11-12T20:55:13.380Z,12.26
2022-11-12T20:58:00.117Z,12.56
2022-11-12T21:00:46.871Z,14.09
2022-11-12T21:03:34.801Z,15.16
2022-11-12T21:06:23.941Z,15.42
2022-11-12T21:09:10.308Z,14.68
2022-11-12T21:11:56.833Z,14.04
2022-11-12T21:14:49.092Z,13.56
2022-11-12T21:17:38.194Z,13.20
2022-11-12T21:20:24.591Z,12.92
2022-11-12T21:23:11.422Z,12.66
2022-11-12T21:26:08.068Z,12.91
2022-11-12T21:28:55.411Z,14.36
2022-11-12T21:31:42.021Z,15.33
2022-11-12T21:34:29.216Z,15.26
2022-11-12T21:37:15.712Z,14.41
2022-11-12T21:40:02.222Z,13.78
2022-11-12T21:42:48.953Z,13.35
2022-11-12T21:45:35.565Z,13.05
2022-11-12T21:48:22.361Z,12.78
2022-11-12T21:51:13.857Z,12.96
2022-11-12T21:54:05.582Z,14.32
2022-11-12T21:56:52.390Z,15.33
2022-11-12T21:59:39.183Z,15.72
2022-11-12T22:02:25.913Z,14.99
2022-11-12T22:05:13.875Z,14.30
2022-11-12T22:08:00.275Z,13.78
2022-11-12T22:10:46.794Z,13.42
2022-11-12T22:13:34.236Z,13.09
2022-11-12T22:16:23.035Z,12.80
2022-11-12T22:19:10.637Z,12.97
2022-11-12T22:21:56.884Z,14.33
2022-11-12T22:24:43.095Z,15.55
2022-11-12T22:27:31.491Z,16.03
2022-11-12T22:30:18.250Z,15.23
2022-11-12T22:33:04.716Z,14.49
2022-11-12T22:35:51.137Z,13.97
2022-11-12T22:38:39.584Z,13.60
2022-11-12T22:41:28.114Z,13.31
2022-11-12T22:44:14.577Z,13.03
2022-11-12T22:47:01.307Z,12.77
2022-11-12T22:49:48.537Z,12.89
2022-11-12T22:52:34.752Z,14.17
2022-11-12T22:55:21.313Z,15.50
2022-11-12T22:58:07.669Z,16.02
2022-11-12T23:00:55.201Z,15.20
2022-11-12T23:03:41.991Z,14.43
2022-11-12T23:06:29.500Z,13.88
2022-11-12T23:09:16.649Z,13.48
2022-11-12T23:12:03.226Z,13.18
2022-11-12T23:14:50.136Z,12.90
2022-11-12T23:17:36.477Z,12.67
2022-11-12T23:20:23.026Z,12.95
2022-11-12T23:23:10.588Z,14.55
2022-11-12T23:26:09.088Z,15.51
2022-11-12T23:28:55.695Z,14.85
2022-11-12T23:31:42.221Z,14.13
2022-11-12T23:34:28.720Z,13.61
2022-11-12T23:37:15.298Z,13.25
2022-11-12T23:40:01.568Z,12.98
2022-11-12T23:42:48.021Z,13.16
2022-11-12T23:45:38.339Z,14.68
2022-11-12T23:48:25.306Z,15.63
2022-11-12T23:51:15.420Z,15.03
2022-11-12T23:54:02.045Z,14.33
2022-11-12T23:56:48.815Z,13.81
2022-11-12T23:59:35.508Z,13.43
